createdAt,value
2017-02-05T00:00:05.927Z,6.92
2017-02-05T00:01:05.921Z,6.92
2017-02-05T00:02:05.948Z,6.92
2017-02-05T00:03:05.945Z,6.88
2017-02-05T00:04:05.962Z,6.93
2017-02-05T00:05:06.092Z,6.93
2017-02-05T00:06:05.610Z,6.99
2017-02-05T00:07:06.122Z,6.92
2017-02-05T00:08:05.733Z,6.89
2017-02-05T00:09:06.025Z,6.87
2017-02-05T00:10:05.646Z,6.89
2017-02-05T00:11:05.660Z,6.87
2017-02-05T00:12:06.083Z,6.93
2017-02-05T00:13:06.076Z,6.84
2017-02-05T00:14:06.096Z,6.82
2017-02-05T00:15:05.706Z,6.81
2017-02-05T00:16:05.728Z,6.74
2017-02-05T00:17:05.733Z,6.78
2017-02-05T00:18:06.142Z,6.74
2017-02-05T00:19:05.760Z,6.85
2017-02-05T00:20:05.892Z,6.74
2017-02-05T00:21:06.178Z,6.77
2017-02-05T00:22:05.414Z,6.75
2017-02-05T00:23:06.204Z,6.67
2017-02-05T00:24:06.224Z,6.72
2017-02-05T00:25:06.252Z,6.67
2017-02-05T00:26:06.343Z,6.69
2017-02-05T00:27:06.375Z,6.69
2017-02-05T00:28:06.403Z,6.75
2017-02-05T00:29:06.284Z,6.72
2017-02-05T00:30:05.911Z,6.69
2017-02-05T00:31:06.493Z,6.72
2017-02-05T00:32:06.327Z,6.79
2017-02-05T00:33:06.016Z,6.67
2017-02-05T00:34:06.347Z,6.63
2017-02-05T00:35:06.357Z,6.66
2017-02-05T00:36:06.388Z,6.64
2017-02-05T00:37:06.379Z,6.64
2017-02-05T00:38:06.012Z,6.67
2017-02-05T00:39:06.406Z,6.63
2017-02-05T00:40:06.449Z,6.67
2017-02-05T00:41:06.034Z,6.69
2017-02-05T00:42:06.049Z,6.74
2017-02-05T00:43:06.574Z,6.66
2017-02-05T00:44:06.487Z,6.62
2017-02-05T00:45:06.690Z,6.74
2017-02-05T00:46:06.507Z,6.69
2017-02-05T00:47:06.625Z,6.63
2017-02-05T00:48:06.640Z,6.62
2017-02-05T00:49:06.541Z,6.62
2017-02-05T00:50:06.550Z,6.6
2017-02-05T00:51:06.676Z,6.64
2017-02-05T00:52:06.605Z,6.6
2017-02-05T00:53:06.584Z,6.6
2017-02-05T00:54:06.598Z,6.6
2017-02-05T00:55:06.773Z,6.59
2017-02-05T00:56:06.626Z,6.57
2017-02-05T00:57:06.636Z,6.56
2017-02-05T00:58:06.651Z,6.57
2017-02-05T00:59:06.773Z,6.63
2017-02-05T01:00:06.786Z,6.59
2017-02-05T01:01:06.688Z,6.49
2017-02-05T01:02:06.749Z,6.52
2017-02-05T01:03:06.716Z,6.52
2017-02-05T01:04:06.728Z,6.56
2017-02-05T01:05:06.849Z,6.54
2017-02-05T01:06:06.760Z,6.52
2017-02-05T01:07:06.764Z,6.54
2017-02-05T01:08:06.918Z,6.6
2017-02-05T01:09:06.787Z,6.54
2017-02-05T01:10:06.806Z,6.54
2017-02-05T01:11:06.826Z,6.52
2017-02-05T01:12:06.825Z,6.51
2017-02-05T01:13:06.839Z,6.56
2017-02-05T01:14:06.845Z,6.46
2017-02-05T01:15:06.974Z,6.57
2017-02-05T01:16:07.078Z,6.42
2017-02-05T01:17:06.494Z,6.49
2017-02-05T01:18:06.620Z,6.42
2017-02-05T01:19:07.055Z,6.48
2017-02-05T01:20:07.046Z,6.48
2017-02-05T01:21:06.936Z,6.49
2017-02-05T01:22:07.155Z,6.46
2017-02-05T01:23:06.959Z,6.41
2017-02-05T01:24:06.973Z,6.46
2017-02-05T01:25:06.984Z,6.35
2017-02-05T01:26:06.997Z,6.36
2017-02-05T01:27:07.019Z,6.33
2017-02-05T01:28:07.025Z,6.35
2017-02-05T01:29:06.702Z,6.33
2017-02-05T01:30:07.060Z,6.35
2017-02-05T01:31:07.174Z,6.33
2017-02-05T01:32:06.793Z,6.38
2017-02-05T01:33:07.126Z,6.33
2017-02-05T01:34:07.102Z,6.36
2017-02-05T01:35:07.114Z,6.3
2017-02-05T01:36:07.129Z,6.36
2017-02-05T01:37:07.134Z,6.38
2017-02-05T01:38:07.250Z,6.33
2017-02-05T01:39:07.274Z,6.38
2017-02-05T01:40:07.175Z,6.33
2017-02-05T01:41:07.186Z,6.31
2017-02-05T01:42:07.205Z,6.27
2017-02-05T01:43:07.206Z,6.3
2017-02-05T01:44:07.221Z,6.3
2017-02-05T01:45:07.235Z,6.31
2017-02-05T01:46:13.517Z,6.27
2017-02-05T01:47:07.396Z,6.27
2017-02-05T01:48:07.271Z,6.31
2017-02-05T01:49:07.283Z,6.31
2017-02-05T01:50:07.458Z,6.27
2017-02-05T01:51:07.305Z,6.28
2017-02-05T01:52:06.925Z,6.3
2017-02-05T01:53:06.933Z,6.31
2017-02-05T01:54:07.347Z,6.26
2017-02-05T01:55:06.963Z,6.28
2017-02-05T01:56:07.370Z,6.22
2017-02-05T01:57:07.381Z,6.2
2017-02-05T01:58:07.392Z,6.28
2017-02-05T01:59:07.405Z,6.26
2017-02-05T02:00:07.416Z,6.26
2017-02-05T02:01:07.427Z,6.26
2017-02-05T02:02:07.444Z,6.27
2017-02-05T02:03:07.454Z,6.28
2017-02-05T02:04:07.461Z,6.28
2017-02-05T02:05:07.475Z,6.24
2017-02-05T02:06:07.498Z,6.27
2017-02-05T02:07:07.106Z,6.28
2017-02-05T02:08:07.512Z,6.3
2017-02-05T02:09:07.521Z,6.2
2017-02-05T02:10:07.542Z,6.26
2017-02-05T02:11:07.553Z,6.27
2017-02-05T02:12:07.562Z,6.24
2017-02-05T02:13:07.577Z,6.11
2017-02-05T02:14:07.586Z,6.2
2017-02-05T02:15:07.603Z,6.17
2017-02-05T02:16:07.613Z,6.09
2017-02-05T02:17:07.626Z,6.12
2017-02-05T02:18:07.245Z,6.16
2017-02-05T02:19:07.648Z,6.22
2017-02-05T02:20:07.655Z,6.16
2017-02-05T02:21:07.676Z,6.09
2017-02-05T02:22:07.691Z,6.17
2017-02-05T02:23:07.689Z,6.09
2017-02-05T02:24:07.707Z,6.16
2017-02-05T02:25:07.720Z,6.19
2017-02-05T02:26:07.737Z,6.19
2017-02-05T02:27:07.748Z,6.14
2017-02-05T02:28:07.758Z,6.08
2017-02-05T02:29:07.779Z,6.12
2017-02-05T02:30:07.796Z,6.16
2017-02-05T02:31:07.796Z,6.16
2017-02-05T02:32:07.812Z,6.22
2017-02-05T02:33:07.825Z,6.11
2017-02-05T02:34:07.831Z,6.12
2017-02-05T02:35:07.849Z,6.11
2017-02-05T02:36:07.457Z,6.19
2017-02-05T02:37:07.873Z,6.09
2017-02-05T02:38:07.484Z,6.02
2017-02-05T02:39:07.891Z,6.11
2017-02-05T02:40:07.518Z,6.14
2017-02-05T02:41:07.914Z,6.19
2017-02-05T02:42:07.533Z,6.14
2017-02-05T02:43:07.943Z,6.09
2017-02-05T02:44:07.950Z,6.17
2017-02-05T02:45:07.566Z,6.09
2017-02-05T02:46:07.581Z,6.08
2017-02-05T02:47:07.986Z,6.12
2017-02-05T02:48:08.007Z,6.04
2017-02-05T02:49:08.013Z,6.11
2017-02-05T02:50:07.632Z,6.09
2017-02-05T02:51:08.038Z,6.11
2017-02-05T02:52:08.051Z,6.11
2017-02-05T02:53:08.068Z,6.05
2017-02-05T02:54:08.074Z,6.08
2017-02-05T02:55:08.088Z,6.07
2017-02-05T02:56:07.702Z,6.09
2017-02-05T02:57:08.109Z,6.12
2017-02-05T02:58:08.124Z,6.07
2017-02-05T02:59:08.143Z,6.09
2017-02-05T03:00:08.149Z,6.09
2017-02-05T03:01:08.157Z,6.09
2017-02-05T03:02:08.209Z,6.14
2017-02-05T03:03:08.185Z,6.14
2017-02-05T03:04:08.194Z,6.07
2017-02-05T03:05:08.205Z,6.09
2017-02-05T03:06:08.217Z,6.12
2017-02-05T03:07:07.835Z,6.08
2017-02-05T03:08:08.245Z,6.2
2017-02-05T03:09:08.257Z,6.14
2017-02-05T03:10:08.272Z,6.17
2017-02-05T03:11:08.279Z,6.08
2017-02-05T03:12:08.290Z,6.11
2017-02-05T03:13:08.308Z,6.11
2017-02-05T03:14:07.917Z,6.09
2017-02-05T03:15:07.929Z,6.12
2017-02-05T03:16:08.530Z,6.2
2017-02-05T03:17:07.743Z,6.19
2017-02-05T03:18:08.476Z,6.11
2017-02-05T03:19:08.474Z,6.14
2017-02-05T03:20:07.993Z,6.08
2017-02-05T03:21:08.431Z,6.17
2017-02-05T03:22:08.013Z,6.11
2017-02-05T03:23:08.423Z,6.08
2017-02-05T03:24:08.583Z,6.09
2017-02-05T03:25:08.529Z,6.11
2017-02-05T03:26:08.574Z,6.16
2017-02-05T03:27:08.473Z,6.14
2017-02-05T03:28:08.487Z,6.08
2017-02-05T03:29:08.493Z,6.08
2017-02-05T03:30:08.114Z,6.11
2017-02-05T03:31:08.518Z,6.16
2017-02-05T03:32:08.536Z,6.14
2017-02-05T03:33:08.537Z,6.12
2017-02-05T03:34:08.558Z,6.11
2017-02-05T03:35:08.564Z,6.12
2017-02-05T03:36:08.181Z,6.12
2017-02-05T03:37:08.268Z,6.11
2017-02-05T03:38:08.756Z,6.16
2017-02-05T03:39:08.618Z,6.16
2017-02-05T03:40:08.627Z,6.16
2017-02-05T03:41:08.639Z,6.14
2017-02-05T03:42:07.856Z,6.12
2017-02-05T03:43:08.659Z,6.14
2017-02-05T03:44:08.300Z,6.14
2017-02-05T03:45:08.684Z,6.09
2017-02-05T03:46:08.718Z,6.12
2017-02-05T03:47:08.310Z,6.12
2017-02-05T03:48:08.723Z,6.12
2017-02-05T03:49:08.814Z,6.17
2017-02-05T03:50:08.744Z,6.17
2017-02-05T03:51:08.755Z,6.2
2017-02-05T03:52:08.768Z,6.14
2017-02-05T03:53:08.782Z,6.14
2017-02-05T03:54:08.399Z,6.17
2017-02-05T03:55:08.802Z,6.22
2017-02-05T03:56:08.419Z,6.17
2017-02-05T03:57:08.435Z,6.14
2017-02-05T03:58:08.844Z,6.31
2017-02-05T03:59:08.857Z,6.24
2017-02-05T04:00:08.869Z,6.12
2017-02-05T04:01:08.993Z,6.24
2017-02-05T04:02:09.004Z,6.19
2017-02-05T04:03:08.507Z,6.24
2017-02-05T04:04:08.918Z,6.26
2017-02-05T04:05:09.040Z,6.26
2017-02-05T04:06:08.536Z,6.22
2017-02-05T04:07:08.549Z,6.22
2017-02-05T04:08:08.964Z,6.26
2017-02-05T04:09:08.979Z,6.26
2017-02-05T04:10:08.988Z,6.27
2017-02-05T04:11:08.998Z,6.31
2017-02-05T04:12:09.010Z,6.33
2017-02-05T04:13:09.022Z,6.28
2017-02-05T04:14:09.036Z,6.24
2017-02-05T04:15:09.045Z,6.28
2017-02-05T04:16:09.055Z,6.22
2017-02-05T04:17:09.070Z,6.27
2017-02-05T04:18:09.082Z,6.38
2017-02-05T04:19:09.096Z,6.28
2017-02-05T04:20:09.104Z,6.31
2017-02-05T04:21:09.119Z,6.28
2017-02-05T04:22:09.130Z,6.41
2017-02-05T04:23:09.142Z,6.33
2017-02-05T04:24:09.156Z,6.26
2017-02-05T04:25:09.167Z,6.35
2017-02-05T04:26:09.179Z,6.33
2017-02-05T04:27:09.193Z,6.36
2017-02-05T04:28:08.805Z,6.35
2017-02-05T04:29:09.213Z,6.31
2017-02-05T04:30:08.832Z,6.33
2017-02-05T04:31:09.233Z,6.33
2017-02-05T04:32:09.254Z,6.36
2017-02-05T04:33:09.262Z,6.36
2017-02-05T04:34:09.270Z,6.31
2017-02-05T04:35:09.287Z,6.33
2017-02-05T04:36:09.299Z,6.33
2017-02-05T04:37:09.320Z,6.28
2017-02-05T04:38:09.323Z,6.41
2017-02-05T04:39:09.337Z,6.44
2017-02-05T04:40:09.348Z,6.33
2017-02-05T04:41:09.399Z,6.39
2017-02-05T04:42:09.379Z,6.33
2017-02-05T04:43:09.390Z,6.36
2017-02-05T04:44:09.403Z,6.46
2017-02-05T04:45:09.403Z,6.49
2017-02-05T04:46:09.420Z,6.35
2017-02-05T04:47:09.430Z,6.44
2017-02-05T04:48:09.445Z,6.49
2017-02-05T04:49:09.456Z,6.48
2017-02-05T04:50:09.468Z,6.44
2017-02-05T04:51:09.482Z,6.48
2017-02-05T04:52:09.488Z,6.48
2017-02-05T04:53:09.507Z,6.48
2017-02-05T04:54:09.513Z,6.44
2017-02-05T04:55:09.130Z,6.49
2017-02-05T04:56:09.144Z,6.46
2017-02-05T04:57:09.153Z,6.51
2017-02-05T04:58:09.564Z,6.56
2017-02-05T04:59:09.573Z,6.57
2017-02-05T05:00:09.591Z,6.54
2017-02-05T05:01:09.598Z,6.54
2017-02-05T05:02:09.216Z,6.54
2017-02-05T05:03:09.622Z,6.51
2017-02-05T05:04:09.237Z,6.51
2017-02-05T05:05:09.738Z,6.54
2017-02-05T05:06:09.263Z,6.57
2017-02-05T05:07:09.679Z,6.52
2017-02-05T05:08:09.724Z,6.57
2017-02-05T05:09:09.701Z,6.57
2017-02-05T05:10:09.519Z,6.52
2017-02-05T05:11:09.716Z,6.54
2017-02-05T05:12:09.828Z,6.57
2017-02-05T05:13:09.743Z,6.57
2017-02-05T05:14:09.759Z,6.52
2017-02-05T05:15:09.766Z,6.51
2017-02-05T05:16:09.780Z,6.62
2017-02-05T05:17:09.905Z,6.56
2017-02-05T05:18:09.804Z,6.57
2017-02-05T05:19:09.817Z,6.54
2017-02-05T05:20:09.831Z,6.59
2017-02-05T05:21:09.443Z,6.51
2017-02-05T05:22:09.854Z,6.49
2017-02-05T05:23:09.864Z,6.57
2017-02-05T05:24:09.879Z,6.52
2017-02-05T05:25:09.888Z,6.49
2017-02-05T05:26:09.942Z,6.48
2017-02-05T05:27:09.518Z,6.57
2017-02-05T05:28:09.925Z,6.62
2017-02-05T05:29:09.936Z,6.59
2017-02-05T05:30:09.605Z,6.6
2017-02-05T05:31:09.961Z,6.66
2017-02-05T05:32:09.699Z,6.59
2017-02-05T05:33:09.988Z,6.59
2017-02-05T05:34:10.056Z,6.51
2017-02-05T05:35:10.050Z,6.59
2017-02-05T05:36:10.059Z,6.62
2017-02-05T05:37:10.148Z,6.66
2017-02-05T05:38:09.657Z,6.64
2017-02-05T05:39:10.064Z,6.6
2017-02-05T05:40:09.674Z,6.56
2017-02-05T05:41:10.086Z,6.59
2017-02-05T05:42:09.699Z,6.57
2017-02-05T05:43:10.102Z,6.66
2017-02-05T05:44:09.723Z,6.62
2017-02-05T05:45:10.134Z,6.69
2017-02-05T05:46:09.828Z,6.69
2017-02-05T05:47:10.161Z,6.57
2017-02-05T05:48:09.860Z,6.59
2017-02-05T05:49:09.785Z,6.66
2017-02-05T05:50:09.798Z,6.59
2017-02-05T05:51:10.207Z,6.6
2017-02-05T05:52:09.824Z,6.62
2017-02-05T05:53:10.235Z,6.69
2017-02-05T05:54:10.242Z,6.63
2017-02-05T05:55:10.249Z,6.64
2017-02-05T05:56:09.867Z,6.59
2017-02-05T05:57:10.274Z,6.72
2017-02-05T05:58:09.893Z,6.64
2017-02-05T05:59:10.304Z,6.6
2017-02-05T06:00:10.313Z,6.63
2017-02-05T06:01:09.929Z,6.64
2017-02-05T06:02:09.936Z,6.54
2017-02-05T06:03:10.457Z,6.59
2017-02-05T06:04:10.360Z,6.64
2017-02-05T06:05:10.494Z,6.62
2017-02-05T06:06:10.404Z,6.62
2017-02-05T06:07:10.514Z,6.72
2017-02-05T06:08:10.020Z,6.57
2017-02-05T06:09:10.423Z,6.63
2017-02-05T06:10:10.530Z,6.63
2017-02-05T06:11:10.445Z,6.64
2017-02-05T06:12:10.066Z,6.66
2017-02-05T06:13:10.477Z,6.72
2017-02-05T06:14:10.767Z,6.67
2017-02-05T06:15:10.189Z,6.69
2017-02-05T06:16:10.621Z,6.69
2017-02-05T06:17:10.520Z,6.7
2017-02-05T06:18:10.134Z,6.64
2017-02-05T06:19:10.550Z,6.78
2017-02-05T06:20:09.760Z,6.59
2017-02-05T06:21:10.567Z,6.7
2017-02-05T06:22:10.580Z,6.67
2017-02-05T06:23:10.191Z,6.66
2017-02-05T06:24:10.604Z,6.7
2017-02-05T06:25:10.616Z,6.62
2017-02-05T06:26:10.234Z,6.74
2017-02-05T06:27:10.643Z,6.62
2017-02-05T06:28:10.290Z,6.62
2017-02-05T06:29:10.663Z,6.59
2017-02-05T06:30:10.280Z,6.59
2017-02-05T06:31:10.292Z,6.62
2017-02-05T06:32:10.712Z,6.62
2017-02-05T06:33:10.318Z,6.7
2017-02-05T06:34:10.821Z,6.56
2017-02-05T06:35:10.389Z,6.6
2017-02-05T06:36:10.354Z,6.72
2017-02-05T06:37:10.765Z,6.69
2017-02-05T06:38:10.778Z,6.63
2017-02-05T06:39:10.785Z,6.63
2017-02-05T06:40:10.402Z,6.64
2017-02-05T06:41:10.812Z,6.64
2017-02-05T06:42:10.426Z,6.75
2017-02-05T06:43:10.835Z,6.69
2017-02-05T06:44:10.845Z,6.75
2017-02-05T06:45:10.862Z,6.64
2017-02-05T06:46:10.868Z,6.72
2017-02-05T06:47:10.886Z,6.72
2017-02-05T06:48:10.964Z,6.7
2017-02-05T06:49:10.930Z,6.67
2017-02-05T06:50:10.524Z,6.67
2017-02-05T06:51:10.931Z,6.72
2017-02-05T06:52:10.948Z,6.67
2017-02-05T06:53:10.957Z,6.72
2017-02-05T06:54:10.574Z,6.66
2017-02-05T06:55:10.983Z,6.72
2017-02-05T06:56:10.603Z,6.74
2017-02-05T06:57:10.727Z,6.75
2017-02-05T06:58:10.715Z,6.7
2017-02-05T06:59:11.108Z,6.67
2017-02-05T07:00:11.142Z,6.7
2017-02-05T07:01:11.128Z,6.69
2017-02-05T07:02:11.160Z,6.7
2017-02-05T07:03:11.178Z,6.69
2017-02-05T07:04:11.167Z,6.67
2017-02-05T07:05:11.219Z,6.72
2017-02-05T07:06:11.231Z,6.75
2017-02-05T07:07:11.181Z,6.67
2017-02-05T07:08:11.144Z,6.74
2017-02-05T07:09:11.160Z,6.72
2017-02-05T07:10:11.166Z,6.74
2017-02-05T07:11:11.181Z,6.81
2017-02-05T07:12:10.435Z,6.75
2017-02-05T07:13:11.205Z,6.64
2017-02-05T07:14:11.222Z,6.74
2017-02-05T07:15:11.228Z,6.72
2017-02-05T07:16:11.357Z,6.77
2017-02-05T07:17:11.479Z,6.77
2017-02-05T07:18:11.355Z,6.81
2017-02-05T07:19:10.994Z,6.78
2017-02-05T07:20:11.097Z,6.79
2017-02-05T07:21:11.002Z,6.79
2017-02-05T07:22:11.319Z,6.82
2017-02-05T07:23:11.335Z,6.79
2017-02-05T07:24:11.339Z,6.72
2017-02-05T07:25:11.352Z,6.77
2017-02-05T07:26:11.365Z,6.82
2017-02-05T07:27:11.376Z,6.84
2017-02-05T07:28:11.395Z,6.81
2017-02-05T07:29:11.405Z,6.78
2017-02-05T07:30:11.117Z,6.81
2017-02-05T07:31:11.429Z,6.81
2017-02-05T07:32:11.441Z,6.82
2017-02-05T07:33:11.479Z,6.81
2017-02-05T07:34:11.685Z,6.77
2017-02-05T07:35:11.481Z,6.84
2017-02-05T07:36:11.499Z,6.85
2017-02-05T07:37:11.502Z,6.88
2017-02-05T07:38:11.616Z,6.85
2017-02-05T07:39:11.550Z,6.88
2017-02-05T07:40:11.551Z,6.93
2017-02-05T07:41:11.661Z,6.93
2017-02-05T07:42:11.569Z,6.97
2017-02-05T07:43:11.578Z,6.85
2017-02-05T07:44:11.316Z,6.88
2017-02-05T07:45:11.711Z,6.96
2017-02-05T07:46:11.332Z,6.95
2017-02-05T07:47:11.713Z,6.88
2017-02-05T07:48:11.754Z,6.93
2017-02-05T07:49:11.739Z,6.89
2017-02-05T07:50:11.271Z,6.89
2017-02-05T07:51:11.677Z,7.02
2017-02-05T07:52:11.774Z,6.97
2017-02-05T07:53:11.704Z,6.88
2017-02-05T07:54:11.717Z,7.02
2017-02-05T07:55:11.732Z,7.06
2017-02-05T07:56:11.841Z,7.03
2017-02-05T07:57:11.891Z,7.06
2017-02-05T07:58:11.368Z,7.05
2017-02-05T07:59:11.772Z,7.06
2017-02-05T08:00:11.392Z,7.05
2017-02-05T08:01:11.800Z,7.02
2017-02-05T08:02:11.412Z,7.07
2017-02-05T08:03:11.933Z,7.13
2017-02-05T08:04:11.837Z,7.15
2017-02-05T08:05:11.903Z,7.06
2017-02-05T08:06:11.469Z,7.05
2017-02-05T08:07:11.876Z,7.1
2017-02-05T08:08:11.930Z,7.05
2017-02-05T08:09:11.966Z,7.13
2017-02-05T08:10:11.973Z,7.07
2017-02-05T08:11:11.983Z,7.13
2017-02-05T08:12:11.939Z,7.15
2017-02-05T08:13:11.950Z,7.18
2017-02-05T08:14:11.959Z,7.18
2017-02-05T08:15:11.977Z,7.17
2017-02-05T08:16:11.992Z,7.17
2017-02-05T08:17:11.998Z,7.24
2017-02-05T08:18:12.014Z,7.18
2017-02-05T08:19:12.022Z,7.2
2017-02-05T08:20:12.040Z,7.17
2017-02-05T08:21:12.047Z,7.15
2017-02-05T08:22:12.067Z,7.15
2017-02-05T08:23:12.077Z,7.17
2017-02-05T08:24:12.087Z,7.15
2017-02-05T08:25:12.107Z,7.17
2017-02-05T08:26:12.111Z,7.18
2017-02-05T08:27:12.125Z,7.18
2017-02-05T08:28:12.138Z,7.17
2017-02-05T08:29:12.156Z,7.18
2017-02-05T08:30:12.162Z,7.18
2017-02-05T08:31:12.178Z,7.28
2017-02-05T08:32:12.187Z,7.21
2017-02-05T08:33:12.199Z,7.29
2017-02-05T08:34:12.216Z,7.24
2017-02-05T08:35:11.831Z,7.28
2017-02-05T08:36:12.418Z,7.36
2017-02-05T08:37:12.366Z,7.31
2017-02-05T08:38:12.376Z,7.28
2017-02-05T08:39:12.489Z,7.25
2017-02-05T08:40:11.888Z,7.29
2017-02-05T08:41:12.303Z,7.32
2017-02-05T08:42:12.312Z,7.39
2017-02-05T08:43:12.326Z,7.36
2017-02-05T08:44:12.340Z,7.4
2017-02-05T08:45:12.347Z,7.38
2017-02-05T08:46:12.368Z,7.5
2017-02-05T08:47:11.986Z,7.47
2017-02-05T08:48:12.390Z,7.42
2017-02-05T08:49:12.402Z,7.43
2017-02-05T08:50:12.016Z,7.5
2017-02-05T08:51:12.429Z,7.48
2017-02-05T08:52:12.441Z,7.53
2017-02-05T08:53:12.454Z,7.5
2017-02-05T08:54:12.067Z,7.47
2017-02-05T08:55:12.476Z,7.47
2017-02-05T08:56:12.490Z,7.51
2017-02-05T08:57:12.507Z,7.5
2017-02-05T08:58:12.520Z,7.53
2017-02-05T08:59:12.132Z,7.53
2017-02-05T09:00:12.546Z,7.6
2017-02-05T09:01:12.555Z,7.5
2017-02-05T09:02:12.174Z,7.57
2017-02-05T09:03:12.584Z,7.66
2017-02-05T09:04:12.596Z,7.66
2017-02-05T09:05:12.607Z,7.66
2017-02-05T09:06:12.622Z,7.6
2017-02-05T09:07:12.632Z,7.57
2017-02-05T09:08:12.249Z,7.66
2017-02-05T09:09:12.657Z,7.63
2017-02-05T09:10:12.666Z,7.72
2017-02-05T09:11:12.287Z,7.56
2017-02-05T09:12:12.300Z,7.69
2017-02-05T09:13:12.711Z,7.73
2017-02-05T09:14:12.329Z,7.75
2017-02-05T09:15:12.736Z,7.7
2017-02-05T09:16:12.748Z,7.7
2017-02-05T09:17:12.761Z,7.72
2017-02-05T09:18:12.770Z,7.69
2017-02-05T09:19:12.388Z,7.75
2017-02-05T09:20:12.799Z,7.73
2017-02-05T09:21:12.416Z,7.76
2017-02-05T09:22:12.431Z,7.8
2017-02-05T09:23:12.544Z,7.69
2017-02-05T09:24:12.944Z,7.76
2017-02-05T09:25:12.946Z,7.73
2017-02-05T09:26:12.618Z,7.79
2017-02-05T09:27:12.569Z,7.72
2017-02-05T09:28:12.974Z,7.73
2017-02-05T09:29:12.981Z,7.79
2017-02-05T09:30:13.017Z,7.79
2017-02-05T09:31:13.044Z,7.83
2017-02-05T09:32:12.964Z,7.85
2017-02-05T09:33:13.081Z,7.82
2017-02-05T09:34:12.979Z,7.77
2017-02-05T09:35:13.106Z,7.79
2017-02-05T09:36:12.609Z,7.76
2017-02-05T09:37:12.653Z,7.82
2017-02-05T09:38:13.073Z,7.9
2017-02-05T09:39:12.646Z,7.77
2017-02-05T09:40:12.662Z,7.91
2017-02-05T09:41:13.174Z,7.77
2017-02-05T09:42:12.685Z,7.87
2017-02-05T09:43:12.702Z,7.87
2017-02-05T09:44:13.199Z,7.8
2017-02-05T09:45:12.740Z,7.75
2017-02-05T09:46:13.231Z,7.87
2017-02-05T09:47:13.241Z,7.87
2017-02-05T09:48:12.764Z,7.9
2017-02-05T09:49:13.262Z,7.85
2017-02-05T09:50:14.060Z,7.88
2017-02-05T09:51:12.806Z,7.9
2017-02-05T09:52:13.207Z,7.97
2017-02-05T09:53:12.829Z,7.95
2017-02-05T09:54:12.846Z,7.94
2017-02-05T09:55:12.858Z,7.91
2017-02-05T09:56:13.517Z,7.9
2017-02-05T09:57:12.998Z,7.88
2017-02-05T09:58:13.401Z,7.93
2017-02-05T09:59:13.003Z,7.98
2017-02-05T10:00:13.429Z,7.94
2017-02-05T10:01:13.489Z,8.05
2017-02-05T10:02:13.182Z,8
2017-02-05T10:03:13.401Z,7.9
2017-02-05T10:04:13.399Z,8
2017-02-05T10:05:13.493Z,7.98
2017-02-05T10:06:13.416Z,8.03
2017-02-05T10:07:13.216Z,7.97
2017-02-05T10:08:13.433Z,7.97
2017-02-05T10:09:13.230Z,8.01
2017-02-05T10:10:13.454Z,8.01
2017-02-05T10:11:13.460Z,8.03
2017-02-05T10:12:13.340Z,8.12
2017-02-05T10:13:13.486Z,8.09
2017-02-05T10:14:13.496Z,8.08
2017-02-05T10:15:13.519Z,8.01
2017-02-05T10:16:13.526Z,8.08
2017-02-05T10:17:13.544Z,8.09
2017-02-05T10:18:13.558Z,8.05
2017-02-05T10:19:13.566Z,8.13
2017-02-05T10:20:13.578Z,8.1
2017-02-05T10:21:13.594Z,8.01
2017-02-05T10:22:13.361Z,8.15
2017-02-05T10:23:13.616Z,8.16
2017-02-05T10:24:13.757Z,8.19
2017-02-05T10:25:13.755Z,8.18
2017-02-05T10:26:13.764Z,8.16
2017-02-05T10:27:13.773Z,8.15
2017-02-05T10:28:13.784Z,8.2
2017-02-05T10:29:13.792Z,8.19
2017-02-05T10:30:13.814Z,8.24
2017-02-05T10:31:13.813Z,8.26
2017-02-05T10:32:13.744Z,8.2
2017-02-05T10:33:13.358Z,8.26
2017-02-05T10:34:13.768Z,8.19
2017-02-05T10:35:13.387Z,8.2
2017-02-05T10:36:13.792Z,8.33
2017-02-05T10:37:13.811Z,8.33
2017-02-05T10:38:13.826Z,8.34
2017-02-05T10:39:13.834Z,8.3
2017-02-05T10:40:14.043Z,8.36
2017-02-05T10:41:13.946Z,8.38
2017-02-05T10:42:14.057Z,8.31
2017-02-05T10:43:13.887Z,8.33
2017-02-05T10:44:13.903Z,8.44
2017-02-05T10:45:13.914Z,8.38
2017-02-05T10:46:13.929Z,8.51
2017-02-05T10:47:13.948Z,8.52
2017-02-05T10:48:13.957Z,8.48
2017-02-05T10:49:13.968Z,8.6
2017-02-05T10:50:13.977Z,8.51
2017-02-05T10:51:13.995Z,8.58
2017-02-05T10:52:14.099Z,8.7
2017-02-05T10:53:14.146Z,8.69
2017-02-05T10:54:14.114Z,8.64
2017-02-05T10:55:14.116Z,8.64
2017-02-05T10:56:14.123Z,8.71
2017-02-05T10:57:14.078Z,8.66
2017-02-05T10:58:14.093Z,8.66
2017-02-05T10:59:14.104Z,8.73
2017-02-05T11:00:14.117Z,8.7
2017-02-05T11:01:14.243Z,8.71
2017-02-05T11:02:14.260Z,8.74
2017-02-05T11:03:14.262Z,8.7
2017-02-05T11:04:14.257Z,8.79
2017-02-05T11:05:14.267Z,8.67
2017-02-05T11:06:14.275Z,8.87
2017-02-05T11:07:14.389Z,8.78
2017-02-05T11:08:14.354Z,8.76
2017-02-05T11:09:14.240Z,8.76
2017-02-05T11:10:14.249Z,8.81
2017-02-05T11:11:13.868Z,8.78
2017-02-05T11:12:13.888Z,8.78
2017-02-05T11:13:14.386Z,8.81
2017-02-05T11:14:14.311Z,8.81
2017-02-05T11:15:14.319Z,8.82
2017-02-05T11:16:14.333Z,8.84
2017-02-05T11:17:14.347Z,8.84
2017-02-05T11:18:14.361Z,8.78
2017-02-05T11:19:14.377Z,8.7
2017-02-05T11:20:13.993Z,8.81
2017-02-05T11:21:14.405Z,8.74
2017-02-05T11:22:14.469Z,8.76
2017-02-05T11:23:14.431Z,8.82
2017-02-05T11:24:14.444Z,8.84
2017-02-05T11:25:14.462Z,8.81
2017-02-05T11:26:14.504Z,8.82
2017-02-05T11:27:14.609Z,8.84
2017-02-05T11:28:14.497Z,8.79
2017-02-05T11:29:14.580Z,8.92
2017-02-05T11:30:14.529Z,8.88
2017-02-05T11:31:14.542Z,8.91
2017-02-05T11:32:14.560Z,8.87
2017-02-05T11:33:14.571Z,8.89
2017-02-05T11:34:14.586Z,8.87
2017-02-05T11:35:14.597Z,8.87
2017-02-05T11:36:14.613Z,8.84
2017-02-05T11:37:14.669Z,8.91
2017-02-05T11:38:14.637Z,8.99
2017-02-05T11:39:14.653Z,8.89
2017-02-05T11:40:14.669Z,8.91
2017-02-05T11:41:14.683Z,8.95
2017-02-05T11:42:14.698Z,8.95
2017-02-05T11:43:14.713Z,9
2017-02-05T11:44:14.724Z,8.97
2017-02-05T11:45:14.740Z,8.95
2017-02-05T11:46:14.749Z,8.94
2017-02-05T11:47:14.768Z,9
2017-02-05T11:48:14.778Z,9.02
2017-02-05T11:49:14.794Z,9.06
2017-02-05T11:50:14.807Z,9.04
2017-02-05T11:51:14.821Z,9.1
2017-02-05T11:52:14.835Z,9.18
2017-02-05T11:53:14.849Z,9.14
2017-02-05T11:54:14.466Z,9.14
2017-02-05T11:55:14.878Z,9.11
2017-02-05T11:56:14.892Z,9.16
2017-02-05T11:57:14.905Z,9.14
2017-02-05T11:58:14.968Z,9.16
2017-02-05T11:59:14.932Z,9.22
2017-02-05T12:00:14.949Z,9.31
2017-02-05T12:01:14.963Z,9.29
2017-02-05T12:02:14.676Z,9.31
2017-02-05T12:03:14.990Z,9.26
2017-02-05T12:04:15.045Z,9.36
2017-02-05T12:05:15.022Z,9.31
2017-02-05T12:06:15.029Z,9.32
2017-02-05T12:07:15.043Z,9.31
2017-02-05T12:08:15.064Z,9.36
2017-02-05T12:09:15.073Z,9.39
2017-02-05T12:10:15.089Z,9.47
2017-02-05T12:11:14.735Z,9.47
2017-02-05T12:12:15.121Z,9.41
2017-02-05T12:13:15.133Z,9.44
2017-02-05T12:14:15.168Z,9.43
2017-02-05T12:15:15.158Z,9.47
2017-02-05T12:16:15.173Z,9.51
2017-02-05T12:17:15.188Z,9.48
2017-02-05T12:18:15.203Z,9.55
2017-02-05T12:19:15.219Z,9.59
2017-02-05T12:20:15.232Z,9.56
2017-02-05T12:21:15.247Z,9.56
2017-02-05T12:22:15.254Z,9.61
2017-02-05T12:23:15.276Z,9.68
2017-02-05T12:24:15.295Z,9.58
2017-02-05T12:25:15.305Z,9.56
2017-02-05T12:26:15.316Z,9.61
2017-02-05T12:27:15.332Z,9.62
2017-02-05T12:28:15.389Z,9.73
2017-02-05T12:29:15.362Z,9.65
2017-02-05T12:30:15.376Z,9.65
2017-02-05T12:31:15.382Z,9.68
2017-02-05T12:32:15.416Z,9.68
2017-02-05T12:33:15.417Z,9.74
2017-02-05T12:34:15.435Z,9.77
2017-02-05T12:35:15.074Z,9.76
2017-02-05T12:36:15.477Z,9.79
2017-02-05T12:37:15.480Z,9.64
2017-02-05T12:38:15.489Z,9.77
2017-02-05T12:39:15.512Z,9.66
2017-02-05T12:40:15.520Z,9.72
2017-02-05T12:41:15.538Z,9.73
2017-02-05T12:42:15.551Z,9.76
2017-02-05T12:43:15.593Z,9.76
2017-02-05T12:44:15.600Z,9.74
2017-02-05T12:45:15.597Z,9.84
2017-02-05T12:46:15.605Z,9.74
2017-02-05T12:47:15.627Z,9.8
2017-02-05T12:48:15.636Z,9.8
2017-02-05T12:49:15.653Z,9.79
2017-02-05T12:50:15.666Z,9.82
2017-02-05T12:51:15.684Z,9.95
2017-02-05T12:52:15.696Z,9.82
2017-02-05T12:53:15.706Z,9.86
2017-02-05T12:54:15.724Z,9.91
2017-02-05T12:55:15.740Z,9.86
2017-02-05T12:56:15.759Z,9.94
2017-02-05T12:57:15.769Z,9.95
2017-02-05T12:58:15.786Z,9.95
2017-02-05T12:59:15.796Z,9.92
2017-02-05T13:00:15.806Z,9.95
2017-02-05T13:01:15.433Z,9.91
2017-02-05T13:02:15.836Z,9.99
2017-02-05T13:03:15.851Z,10.02
2017-02-05T13:04:15.871Z,9.98
2017-02-05T13:05:15.890Z,10.01
2017-02-05T13:06:15.921Z,10.12
2017-02-05T13:07:15.920Z,10.05
2017-02-05T13:08:15.943Z,10.12
2017-02-05T13:09:15.936Z,10.15
2017-02-05T13:10:15.959Z,10.17
2017-02-05T13:11:15.967Z,10.13
2017-02-05T13:12:15.590Z,10.19
2017-02-05T13:13:16.054Z,10.2
2017-02-05T13:14:16.015Z,10.26
2017-02-05T13:15:16.030Z,10.25
2017-02-05T13:16:16.046Z,10.35
2017-02-05T13:17:16.061Z,10.31
2017-02-05T13:18:16.097Z,10.28
2017-02-05T13:19:16.097Z,10.4
2017-02-05T13:20:16.108Z,10.37